createdAt,value
2018-06-21T00:00:29.914Z,57.40
2018-06-21T00:02:59.382Z,57.35
2018-06-21T00:05:28.934Z,57.22
2018-06-21T00:07:58.425Z,57.33
2018-06-21T00:10:27.963Z,57.00
2018-06-21T00:12:57.593Z,57.17
2018-06-21T00:15:27.073Z,56.89
2018-06-21T00:17:56.638Z,56.85
2018-06-21T00:20:25.875Z,56.84
2018-06-21T00:22:55.373Z,57.14
2018-06-21T00:25:24.893Z,56.67
2018-06-21T00:27:54.364Z,56.63
2018-06-21T00:30:23.832Z,57.00
2018-06-21T00:32:53.379Z,56.97
2018-06-21T00:35:22.910Z,57.44
2018-06-21T00:37:52.426Z,57.64
2018-06-21T00:40:21.961Z,57.77
2018-06-21T00:42:51.504Z,57.61
2018-06-21T00:45:21.012Z,57.65
2018-06-21T00:47:50.571Z,57.43
2018-06-21T00:50:20.133Z,57.16
2018-06-21T00:52:49.647Z,56.90
2018-06-21T00:55:36.216Z,56.67
2018-06-21T00:58:05.730Z,56.40
2018-06-21T01:00:35.394Z,56.41
2018-06-21T01:03:04.978Z,56.33
2018-06-21T01:05:34.507Z,56.77
2018-06-21T01:08:03.923Z,56.65
2018-06-21T01:10:33.367Z,56.57
2018-06-21T01:13:02.906Z,56.75
2018-06-21T01:15:32.503Z,56.88
2018-06-21T01:18:01.949Z,57.32
2018-06-21T01:20:31.426Z,57.48
2018-06-21T01:23:00.870Z,57.52
2018-06-21T01:25:30.338Z,58.09
2018-06-21T01:27:59.781Z,58.08
2018-06-21T01:30:29.253Z,58.34
2018-06-21T01:32:58.977Z,58.01
2018-06-21T01:35:28.524Z,58.08
2018-06-21T01:37:57.936Z,58.10
2018-06-21T01:40:27.480Z,57.95
2018-06-21T01:42:56.958Z,57.94
2018-06-21T01:45:26.446Z,57.58
2018-06-21T01:47:55.859Z,57.59
2018-06-21T01:50:25.334Z,57.46
2018-06-21T01:52:54.761Z,57.18
2018-06-21T01:55:24.234Z,57.01
2018-06-21T01:57:53.719Z,56.61
2018-06-21T02:00:23.253Z,56.84
2018-06-21T02:02:52.773Z,56.97
2018-06-21T02:05:22.312Z,56.85
2018-06-21T02:07:51.817Z,57.04
2018-06-21T02:10:21.280Z,56.88
2018-06-21T02:12:50.705Z,56.99
2018-06-21T02:15:20.146Z,56.97
2018-06-21T02:17:49.563Z,57.18
2018-06-21T02:20:18.974Z,56.90
2018-06-21T02:22:48.485Z,57.22
2018-06-21T02:25:18.105Z,57.61
2018-06-21T02:27:47.537Z,57.69
2018-06-21T02:30:16.981Z,57.95
2018-06-21T02:32:46.441Z,58.40
2018-06-21T02:35:15.860Z,58.73
2018-06-21T02:37:45.300Z,59.67
2018-06-21T02:40:14.463Z,59.97
2018-06-21T02:42:43.964Z,60.04
2018-06-21T02:45:15.394Z,60.16
2018-06-21T02:47:44.847Z,60.03
2018-06-21T02:50:14.295Z,60.22
2018-06-21T02:52:43.781Z,60.40
2018-06-21T02:55:13.243Z,60.80
2018-06-21T02:57:42.696Z,60.65
2018-06-21T03:00:12.153Z,60.57
2018-06-21T03:02:41.617Z,60.67
2018-06-21T03:05:11.093Z,60.73
2018-06-21T03:07:40.489Z,60.76
2018-06-21T03:10:09.921Z,60.72
2018-06-21T03:12:39.414Z,61.10
2018-06-21T03:15:09.088Z,61.10
2018-06-21T03:17:38.537Z,61.49
2018-06-21T03:20:07.997Z,61.30
2018-06-21T03:22:37.469Z,61.13
2018-06-21T03:25:06.934Z,61.00
2018-06-21T03:27:36.409Z,60.74
2018-06-21T03:30:05.868Z,60.68
2018-06-21T03:32:35.357Z,60.11
2018-06-21T03:35:04.857Z,60.42
2018-06-21T03:37:34.033Z,60.07
2018-06-21T03:40:03.495Z,59.63
2018-06-21T03:42:32.921Z,59.41
2018-06-21T03:45:02.423Z,59.29
2018-06-21T03:47:31.851Z,58.85
2018-06-21T03:50:01.386Z,58.72
2018-06-21T03:52:30.865Z,58.30
2018-06-21T03:55:00.267Z,57.90
2018-06-21T03:57:29.785Z,57.91
2018-06-21T03:59:58.978Z,57.88
2018-06-21T04:02:28.188Z,57.78
2018-06-21T04:04:57.615Z,57.73
2018-06-21T04:07:27.055Z,57.70
2018-06-21T04:09:56.473Z,57.87
2018-06-21T04:12:25.893Z,57.63
2018-06-21T04:14:55.329Z,57.09
2018-06-21T04:17:24.867Z,56.65
2018-06-21T04:19:54.308Z,56.86
2018-06-21T04:22:23.808Z,56.33
2018-06-21T04:24:53.270Z,56.19
2018-06-21T04:27:22.806Z,55.46
2018-06-21T04:29:52.226Z,55.77
2018-06-21T04:32:21.683Z,55.87
2018-06-21T04:34:51.151Z,55.79
2018-06-21T04:37:21.528Z,55.68
2018-06-21T04:39:50.985Z,55.76
2018-06-21T04:42:20.415Z,55.91
2018-06-21T04:44:49.866Z,55.61
2018-06-21T04:47:19.268Z,54.91
2018-06-21T04:49:48.677Z,54.54
2018-06-21T04:52:18.147Z,54.11
2018-06-21T04:54:47.673Z,53.53
2018-06-21T04:57:17.122Z,53.43
2018-06-21T04:59:46.565Z,53.38
2018-06-21T05:02:16.003Z,53.49
2018-06-21T05:04:45.462Z,52.12
2018-06-21T05:07:14.934Z,52.61
2018-06-21T05:09:44.336Z,52.95
2018-06-21T05:12:13.759Z,51.94
2018-06-21T05:14:43.173Z,52.48
2018-06-21T05:17:12.561Z,52.76
2018-06-21T05:19:42.023Z,52.39
2018-06-21T05:22:11.505Z,52.17
2018-06-21T05:24:40.912Z,51.85
2018-06-21T05:27:10.598Z,51.78
2018-06-21T05:29:40.050Z,52.16
2018-06-21T05:32:09.482Z,51.80
2018-06-21T05:34:38.889Z,51.78
2018-06-21T05:37:08.296Z,52.10
2018-06-21T05:39:37.707Z,50.49
2018-06-21T05:42:07.098Z,50.74
2018-06-21T05:44:36.485Z,50.71
2018-06-21T05:47:05.944Z,50.85
2018-06-21T05:49:35.343Z,50.28
2018-06-21T05:52:04.731Z,48.34
2018-06-21T05:54:34.109Z,44.14
2018-06-21T05:57:03.571Z,38.16
2018-06-21T05:59:32.956Z,36.01
2018-06-21T06:02:02.350Z,32.00
2018-06-21T06:04:31.739Z,32.19
2018-06-21T06:07:01.149Z,37.29
2018-06-21T06:09:30.606Z,37.24
2018-06-21T06:11:59.965Z,35.71
2018-06-21T06:14:29.382Z,34.69
2018-06-21T06:16:58.837Z,33.90
2018-06-21T06:19:28.223Z,33.86
2018-06-21T06:21:57.555Z,34.03
2018-06-21T06:24:27.186Z,33.60
2018-06-21T06:26:56.610Z,31.58
2018-06-21T06:29:25.960Z,27.60
2018-06-21T06:31:55.731Z,28.36
2018-06-21T06:34:25.186Z,27.14
2018-06-21T06:36:54.571Z,30.30
2018-06-21T06:39:24.005Z,28.05
2018-06-21T06:41:53.423Z,27.72
2018-06-21T06:44:22.871Z,27.62
2018-06-21T06:46:52.396Z,27.60
2018-06-21T06:49:21.789Z,26.44
2018-06-21T06:51:51.231Z,27.98
2018-06-21T06:54:20.610Z,30.85
2018-06-21T06:56:50.018Z,31.75
2018-06-21T06:59:19.457Z,33.26
2018-06-21T07:01:48.829Z,35.43
2018-06-21T07:04:18.252Z,35.16
2018-06-21T07:06:47.651Z,35.74
2018-06-21T07:09:17.050Z,36.76
2018-06-21T07:11:46.481Z,37.71
2018-06-21T07:14:15.957Z,37.90
2018-06-21T07:16:45.338Z,38.08
2018-06-21T07:19:14.765Z,37.49
2018-06-21T07:21:44.146Z,37.61
2018-06-21T07:24:13.572Z,38.61
2018-06-21T07:26:43.024Z,38.18
2018-06-21T07:29:12.380Z,37.58
2018-06-21T07:31:41.785Z,38.15
2018-06-21T07:34:11.165Z,38.15
2018-06-21T07:36:40.597Z,37.73
2018-06-21T07:39:10.852Z,36.65
2018-06-21T07:41:40.355Z,36.39
2018-06-21T07:44:09.779Z,37.35
2018-06-21T07:46:39.192Z,37.91
2018-06-21T07:49:08.670Z,37.94
2018-06-21T07:51:38.144Z,36.95
2018-06-21T07:54:07.577Z,36.78
2018-06-21T07:56:36.950Z,36.79
2018-06-21T07:59:06.420Z,36.97
2018-06-21T08:01:35.925Z,36.86
2018-06-21T08:04:05.405Z,37.03
2018-06-21T08:06:34.851Z,36.88
2018-06-21T08:09:06.505Z,37.13
2018-06-21T08:11:35.937Z,36.00
2018-06-21T08:14:05.457Z,36.44
2018-06-21T08:16:35.007Z,36.68
2018-06-21T08:19:04.590Z,36.09
2018-06-21T08:21:34.236Z,36.40
2018-06-21T08:24:03.579Z,36.38
2018-06-21T08:26:33.020Z,35.09
2018-06-21T08:29:02.406Z,34.68
2018-06-21T08:31:31.853Z,34.63
2018-06-21T08:34:01.295Z,34.03
2018-06-21T08:36:30.673Z,33.93
2018-06-21T08:39:00.233Z,33.77
2018-06-21T08:41:33.951Z,34.90
2018-06-21T08:44:03.320Z,33.11
2018-06-21T08:46:33.265Z,32.95
2018-06-21T08:49:02.766Z,31.73
2018-06-21T08:51:32.129Z,30.79
2018-06-21T08:54:01.527Z,29.59
2018-06-21T08:56:30.954Z,31.49
2018-06-21T08:59:00.385Z,31.22
2018-06-21T09:01:29.873Z,29.01
2018-06-21T09:03:59.239Z,29.02
2018-06-21T09:06:28.710Z,28.48
2018-06-21T09:08:58.140Z,28.87
2018-06-21T09:11:27.568Z,29.15
2018-06-21T09:13:56.970Z,30.33
2018-06-21T09:16:26.717Z,32.91
2018-06-21T09:18:56.305Z,34.91
2018-06-21T09:21:25.733Z,36.11
2018-06-21T09:23:55.148Z,34.78
2018-06-21T09:26:24.575Z,34.39
2018-06-21T09:28:53.945Z,34.43
2018-06-21T09:31:23.350Z,34.49
2018-06-21T09:33:52.703Z,34.67
2018-06-21T09:36:22.081Z,41.84
2018-06-21T09:38:56.672Z,47.03
2018-06-21T09:41:31.242Z,49.60
2018-06-21T09:44:05.973Z,50.73
2018-06-21T09:46:40.591Z,51.46
2018-06-21T09:49:10.037Z,51.93
2018-06-21T09:51:39.466Z,52.33
2018-06-21T09:54:08.854Z,52.30
2018-06-21T09:56:38.337Z,52.51
2018-06-21T09:59:07.714Z,52.97
2018-06-21T10:01:37.152Z,53.39
2018-06-21T10:04:07.003Z,54.70
2018-06-21T10:06:36.429Z,54.97
2018-06-21T10:09:07.186Z,55.70
2018-06-21T10:11:36.596Z,55.93
2018-06-21T10:14:06.027Z,56.36
2018-06-21T10:16:35.566Z,58.95
2018-06-21T10:19:05.027Z,62.05
2018-06-21T10:21:34.412Z,63.93
2018-06-21T10:24:03.765Z,64.75
2018-06-21T10:26:33.134Z,66.01
2018-06-21T10:29:02.594Z,66.35
2018-06-21T10:31:31.988Z,66.60
2018-06-21T10:34:01.172Z,65.69
2018-06-21T10:36:30.574Z,65.80
2018-06-21T10:39:00.044Z,64.60
2018-06-21T10:41:29.512Z,64.23
2018-06-21T10:43:58.914Z,63.43
2018-06-21T10:46:28.389Z,63.58
2018-06-21T10:48:57.811Z,63.49
2018-06-21T10:51:27.192Z,63.63
2018-06-21T10:53:56.606Z,63.54
2018-06-21T10:56:26.046Z,64.69
2018-06-21T10:58:55.652Z,65.54
2018-06-21T11:01:25.097Z,64.72
2018-06-21T11:03:54.438Z,64.85
2018-06-21T11:06:24.363Z,65.10
2018-06-21T11:08:53.720Z,65.25
2018-06-21T11:11:23.207Z,63.61
2018-06-21T11:13:52.635Z,62.92
2018-06-21T11:16:22.052Z,61.32
2018-06-21T11:18:51.554Z,60.82
2018-06-21T11:21:21.040Z,58.63
2018-06-21T11:23:50.466Z,59.33
2018-06-21T11:26:19.893Z,59.20
2018-06-21T11:28:49.405Z,59.81
2018-06-21T11:31:18.807Z,59.37
2018-06-21T11:33:48.239Z,58.74
2018-06-21T11:36:17.664Z,58.66
2018-06-21T11:38:47.048Z,58.92
2018-06-21T11:41:16.467Z,58.83
2018-06-21T11:43:45.849Z,58.15
2018-06-21T11:46:15.219Z,57.81
2018-06-21T11:48:44.574Z,56.96
2018-06-21T11:51:14.109Z,54.67
2018-06-21T11:53:43.494Z,52.47
2018-06-21T11:56:12.913Z,50.85
2018-06-21T11:58:42.304Z,51.01
2018-06-21T12:01:11.826Z,50.43
2018-06-21T12:03:41.245Z,50.14
2018-06-21T12:06:10.661Z,51.47
2018-06-21T12:08:40.298Z,51.15
2018-06-21T12:11:09.723Z,51.53
2018-06-21T12:13:39.458Z,51.62
2018-06-21T12:16:08.901Z,49.36
2018-06-21T12:18:38.374Z,50.73
2018-06-21T12:21:07.740Z,49.67
2018-06-21T12:23:37.125Z,47.76
2018-06-21T12:26:06.656Z,48.25
2018-06-21T12:28:36.020Z,50.92
2018-06-21T12:31:05.479Z,51.11
2018-06-21T12:33:34.904Z,51.46
2018-06-21T12:36:04.464Z,51.63
2018-06-21T12:38:33.879Z,51.00
2018-06-21T12:41:03.303Z,50.89
2018-06-21T12:43:32.690Z,50.23
2018-06-21T12:46:02.115Z,50.10
2018-06-21T12:48:31.525Z,49.49
2018-06-21T12:51:01.006Z,49.91
2018-06-21T12:53:30.449Z,50.04
2018-06-21T12:55:59.857Z,50.08
2018-06-21T12:58:29.256Z,50.96
2018-06-21T13:00:58.740Z,49.27
2018-06-21T13:03:28.096Z,47.84
2018-06-21T13:05:57.489Z,46.05
2018-06-21T13:08:44.008Z,44.76
2018-06-21T13:12:29.555Z,44.99
2018-06-21T13:14:58.945Z,45.22
2018-06-21T13:17:30.458Z,45.25
2018-06-21T13:20:01.046Z,45.54
2018-06-21T13:22:30.456Z,44.51
2018-06-21T13:25:00.015Z,41.54
2018-06-21T13:27:29.436Z,41.50
2018-06-21T13:29:59.004Z,41.03
2018-06-21T13:32:28.451Z,40.46
2018-06-21T13:34:57.860Z,39.35
2018-06-21T13:37:27.284Z,39.80
2018-06-21T13:39:56.739Z,40.96
2018-06-21T13:42:26.156Z,40.13
2018-06-21T13:44:55.544Z,39.83
2018-06-21T13:47:24.971Z,41.26
2018-06-21T13:49:54.472Z,40.77
2018-06-21T13:52:23.894Z,41.03
2018-06-21T13:54:53.316Z,40.62
2018-06-21T13:57:22.841Z,42.20
2018-06-21T13:59:52.309Z,42.19
2018-06-21T14:02:21.651Z,42.74
2018-06-21T14:04:51.181Z,43.25
2018-06-21T14:07:20.654Z,43.18
2018-06-21T14:09:50.038Z,44.72
2018-06-21T14:12:19.526Z,44.26
2018-06-21T14:14:49.226Z,43.92
2018-06-21T14:17:18.582Z,43.57
2018-06-21T14:19:48.043Z,42.29
2018-06-21T14:22:17.623Z,40.74
2018-06-21T14:24:47.124Z,40.86
2018-06-21T14:27:16.588Z,39.70
2018-06-21T14:29:45.982Z,39.76
2018-06-21T14:32:15.463Z,38.84
2018-06-21T14:34:44.855Z,38.56
2018-06-21T14:37:14.280Z,38.93
2018-06-21T14:39:43.704Z,39.66
2018-06-21T14:42:13.083Z,38.71
2018-06-21T14:44:42.483Z,38.35
2018-06-21T14:47:11.903Z,36.62
2018-06-21T14:49:41.370Z,37.03
2018-06-21T14:52:10.826Z,36.82
2018-06-21T14:54:40.240Z,37.18
2018-06-21T14:57:10.258Z,38.34
2018-06-21T14:59:39.607Z,37.81
2018-06-21T15:02:09.058Z,36.70
2018-06-21T15:04:38.451Z,36.74
2018-06-21T15:07:07.804Z,35.61
2018-06-21T15:09:37.252Z,34.73
2018-06-21T15:12:06.978Z,34.63
2018-06-21T15:14:36.374Z,34.16
2018-06-21T15:17:05.809Z,33.02
2018-06-21T15:19:35.252Z,33.02
2018-06-21T15:22:04.672Z,33.95
2018-06-21T15:24:34.092Z,33.70
2018-06-21T15:27:03.491Z,33.57
2018-06-21T15:29:32.864Z,33.59
2018-06-21T15:32:02.269Z,32.59
2018-06-21T15:34:31.698Z,33.87
2018-06-21T15:37:02.123Z,34.39
2018-06-21T15:39:31.589Z,34.06
2018-06-21T15:42:01.037Z,33.55
2018-06-21T15:44:30.450Z,33.01
2018-06-21T15:46:59.859Z,32.73
2018-06-21T15:49:29.276Z,32.38
2018-06-21T15:51:58.702Z,32.58
2018-06-21T15:54:28.132Z,31.63
2018-06-21T15:56:57.652Z,31.14
2018-06-21T15:59:27.063Z,31.97
2018-06-21T16:01:56.687Z,31.74
2018-06-21T16:04:26.078Z,30.69
2018-06-21T16:06:55.435Z,31.23
2018-06-21T16:09:24.874Z,30.99
2018-06-21T16:11:54.321Z,31.20
2018-06-21T16:14:23.758Z,33.09
2018-06-21T16:16:53.166Z,34.89
2018-06-21T16:19:22.629Z,35.96
2018-06-21T16:21:52.097Z,35.85
2018-06-21T16:24:21.496Z,34.63
2018-06-21T16:26:50.930Z,34.27
2018-06-21T16:29:20.374Z,34.42
2018-06-21T16:31:49.879Z,35.08
2018-06-21T16:34:19.336Z,35.47
2018-06-21T16:36:48.761Z,35.41
2018-06-21T16:39:18.187Z,35.76
2018-06-21T16:41:47.623Z,36.09
2018-06-21T16:44:17.011Z,36.53
2018-06-21T16:46:46.600Z,37.04
2018-06-21T16:49:15.939Z,37.00
2018-06-21T16:51:45.405Z,37.95
2018-06-21T16:54:14.878Z,37.68
2018-06-21T16:56:44.365Z,37.71
2018-06-21T16:59:13.841Z,38.13
2018-06-21T17:01:43.294Z,38.40
2018-06-21T17:04:12.740Z,38.09
2018-06-21T17:06:42.227Z,38.15
2018-06-21T17:09:12.047Z,38.41
2018-06-21T17:11:41.760Z,39.12
2018-06-21T17:14:11.177Z,38.83
2018-06-21T17:16:40.634Z,39.92
2018-06-21T17:19:10.070Z,39.33
2018-06-21T17:21:39.540Z,39.47
2018-06-21T17:24:09.026Z,40.42
2018-06-21T17:26:38.228Z,41.29
2018-06-21T17:29:07.613Z,41.46
2018-06-21T17:31:36.972Z,41.68
2018-06-21T17:34:06.359Z,43.51
2018-06-21T17:36:35.789Z,42.47
2018-06-21T17:39:07.786Z,42.07
2018-06-21T17:41:37.230Z,41.34
2018-06-21T17:44:06.637Z,41.83
2018-06-21T17:46:36.498Z,41.36
2018-06-21T17:49:05.971Z,41.28
2018-06-21T17:51:35.331Z,41.31
2018-06-21T17:54:04.789Z,40.90
2018-06-21T17:56:34.313Z,40.77
2018-06-21T17:59:03.940Z,40.88
2018-06-21T18:01:33.117Z,41.33
2018-06-21T18:04:02.513Z,41.92
2018-06-21T18:06:38.095Z,41.54
2018-06-21T18:09:09.528Z,42.09
2018-06-21T18:11:38.988Z,42.22
2018-06-21T18:14:08.419Z,42.05
2018-06-21T18:16:37.756Z,41.51
2018-06-21T18:19:07.204Z,41.89
2018-06-21T18:21:36.630Z,42.22
2018-06-21T18:24:06.351Z,42.53
2018-06-21T18:26:35.924Z,42.85
2018-06-21T18:29:05.329Z,42.75
2018-06-21T18:31:34.653Z,43.18
2018-06-21T18:34:04.100Z,43.05
2018-06-21T18:36:33.496Z,43.04
2018-06-21T18:39:02.966Z,43.45
2018-06-21T18:41:32.405Z,43.64
2018-06-21T18:44:01.850Z,44.25
2018-06-21T18:46:31.307Z,44.64
2018-06-21T18:49:00.792Z,44.55
2018-06-21T18:51:30.229Z,45.12
2018-06-21T18:53:59.624Z,45.59
2018-06-21T18:56:29.066Z,45.80
2018-06-21T18:58:58.495Z,46.11
2018-06-21T19:01:27.887Z,46.28
2018-06-21T19:03:57.692Z,46.58
2018-06-21T19:06:32.370Z,46.89
2018-06-21T19:09:07.072Z,47.09
2018-06-21T19:11:41.755Z,46.98
2018-06-21T19:14:11.132Z,47.49
2018-06-21T19:16:40.531Z,47.86
2018-06-21T19:19:09.912Z,48.15
2018-06-21T19:21:39.407Z,48.15
2018-06-21T19:24:08.817Z,47.99
2018-06-21T19:26:38.171Z,48.11
2018-06-21T19:29:07.575Z,48.67
2018-06-21T19:31:36.999Z,48.81
2018-06-21T19:34:06.399Z,48.95
2018-06-21T19:36:35.939Z,49.09
2018-06-21T19:39:08.226Z,49.38
2018-06-21T19:41:38.283Z,49.75
2018-06-21T19:44:08.497Z,49.66
2018-06-21T19:46:38.148Z,49.70
2018-06-21T19:49:07.698Z,50.08
2018-06-21T19:51:37.126Z,50.21
2018-06-21T19:54:06.570Z,50.30
2018-06-21T19:56:35.981Z,50.59
2018-06-21T19:59:05.559Z,50.89
2018-06-21T20:01:35.013Z,51.19
2018-06-21T20:04:04.428Z,51.69
2018-06-21T20:06:33.975Z,52.00
2018-06-21T20:09:03.529Z,51.85
2018-06-21T20:11:38.095Z,52.71
2018-06-21T20:14:07.519Z,52.36
2018-06-21T20:16:36.934Z,51.74
2018-06-21T20:19:13.148Z,51.97
2018-06-21T20:21:42.853Z,52.06
2018-06-21T20:24:12.223Z,52.02
2018-06-21T20:26:41.742Z,51.98
2018-06-21T20:29:16.359Z,52.24
2018-06-21T20:31:45.738Z,51.73
2018-06-21T20:34:15.119Z,51.33
2018-06-21T20:36:44.578Z,51.58
2018-06-21T20:39:14.021Z,51.46
2018-06-21T20:41:43.488Z,51.14
2018-06-21T20:44:12.915Z,50.81
2018-06-21T20:46:42.334Z,51.14
2018-06-21T20:49:11.730Z,51.15
2018-06-21T20:51:41.185Z,51.46
2018-06-21T20:54:10.636Z,51.58
2018-06-21T20:56:40.112Z,51.28
2018-06-21T20:59:09.573Z,51.13
2018-06-21T21:01:39.021Z,51.21
2018-06-21T21:04:08.493Z,50.68
2018-06-21T21:06:37.945Z,51.09
2018-06-21T21:09:08.220Z,51.15
2018-06-21T21:11:37.643Z,51.29
2018-06-21T21:14:07.097Z,51.22
2018-06-21T21:16:36.528Z,51.37
2018-06-21T21:19:05.929Z,51.58
2018-06-21T21:21:35.316Z,51.50
2018-06-21T21:24:04.802Z,51.98
2018-06-21T21:26:34.174Z,51.92
2018-06-21T21:29:03.704Z,51.81
2018-06-21T21:31:33.187Z,51.98
2018-06-21T21:34:02.598Z,52.32
2018-06-21T21:36:31.993Z,52.41
2018-06-21T21:39:01.395Z,52.83
2018-06-21T21:41:30.732Z,53.12
2018-06-21T21:44:00.113Z,53.49
2018-06-21T21:46:29.524Z,53.57
2018-06-21T21:48:58.855Z,53.64
2018-06-21T21:51:28.214Z,53.98
2018-06-21T21:53:57.595Z,54.28
2018-06-21T21:56:27.556Z,54.30
2018-06-21T21:58:56.939Z,54.79
2018-06-21T22:01:26.369Z,54.78
2018-06-21T22:03:55.811Z,54.77
2018-06-21T22:06:25.260Z,55.16
2018-06-21T22:08:54.649Z,55.14
2018-06-21T22:11:24.058Z,55.61
2018-06-21T22:13:57.596Z,55.63
2018-06-21T22:16:26.955Z,55.77
2018-06-21T22:18:56.371Z,55.89
2018-06-21T22:21:25.759Z,55.98
2018-06-21T22:23:55.192Z,56.23
2018-06-21T22:26:24.585Z,56.30
2018-06-21T22:28:53.972Z,56.69
2018-06-21T22:31:23.384Z,56.77
2018-06-21T22:33:52.738Z,57.14
2018-06-21T22:36:22.175Z,56.89
2018-06-21T22:38:51.574Z,57.03
2018-06-21T22:41:20.967Z,57.76
2018-06-21T22:43:50.335Z,57.48
2018-06-21T22:46:19.741Z,57.56
2018-06-21T22:48:49.183Z,57.29
2018-06-21T22:51:18.619Z,57.03
2018-06-21T22:53:48.031Z,56.84
2018-06-21T22:56:17.473Z,56.84
2018-06-21T22:58:46.905Z,57.22
2018-06-21T23:01:16.443Z,57.44
2018-06-21T23:03:45.977Z,57.85
2018-06-21T23:06:15.435Z,57.61
2018-06-21T23:08:44.782Z,57.86
2018-06-21T23:11:14.254Z,58.28
2018-06-21T23:13:43.678Z,58.00
2018-06-21T23:16:13.166Z,57.94
2018-06-21T23:18:59.538Z,57.87
2018-06-21T23:21:28.886Z,58.02
2018-06-21T23:23:58.254Z,58.03
2018-06-21T23:26:27.671Z,57.40
2018-06-21T23:28:57.107Z,57.49
2018-06-21T23:31:26.517Z,57.54
2018-06-21T23:33:56.026Z,57.38
2018-06-21T23:36:25.457Z,57.53
2018-06-21T23:38:54.877Z,58.00
2018-06-21T23:41:24.296Z,57.93
2018-06-21T23:43:53.657Z,58.21
2018-06-21T23:46:23.391Z,58.16
2018-06-21T23:48:52.794Z,57.92
2018-06-21T23:51:22.208Z,58.00
2018-06-21T23:53:51.631Z,57.44
2018-06-21T23:56:21.016Z,57.71
2018-06-21T23:58:50.482Z,57.59
